sensor_id;sensor_type;location;lat;lon;timestamp;P1;durP1;ratioP1;P2;durP2;ratioP2
20022;SDS011;10172;42.054;24.546;2023-03-01T00:01:09;6.13;;;4.07;;
20022;SDS011;10172;42.054;24.546;2023-03-01T00:03:37;6.32;;;4.00;;
20022;SDS011;10172;42.054;24.546;2023-03-01T00:06:03;7.85;;;4.47;;
20022;SDS011;10172;42.054;24.546;2023-03-01T00:08:30;7.68;;;5.55;;
20022;SDS011;10172;42.054;24.546;2023-03-01T00:11:09;11.05;;;5.70;;
20022;SDS011;10172;42.054;24.546;2023-03-01T00:13:40;7.55;;;5.22;;
20022;SDS011;10172;42.054;24.546;2023-03-01T00:16:07;6.53;;;5.13;;
20022;SDS011;10172;42.054;24.546;2023-03-01T00:18:35;7.85;;;5.55;;
20022;SDS011;10172;42.054;24.546;2023-03-01T00:21:01;8.00;;;5.80;;
20022;SDS011;10172;42.054;24.546;2023-03-01T00:23:27;9.60;;;6.35;;
20022;SDS011;10172;42.054;24.546;2023-03-01T00:25:52;9.27;;;6.10;;
20022;SDS011;10172;42.054;24.546;2023-03-01T00:28:19;8.70;;;5.85;;
20022;SDS011;10172;42.054;24.546;2023-03-01T00:30:44;8.52;;;6.82;;
20022;SDS011;10172;42.054;24.546;2023-03-01T00:33:11;8.95;;;6.28;;
20022;SDS011;10172;42.054;24.546;2023-03-01T00:35:36;9.07;;;6.32;;
20022;SDS011;10172;42.054;24.546;2023-03-01T00:38:02;10.00;;;6.28;;
20022;SDS011;10172;42.054;24.546;2023-03-01T00:40:29;8.85;;;6.50;;
20022;SDS011;10172;42.054;24.546;2023-03-01T00:42:57;10.02;;;6.25;;
20022;SDS011;10172;42.054;24.546;2023-03-01T00:45:22;10.40;;;6.70;;
20022;SDS011;10172;42.054;24.546;2023-03-01T00:47:49;9.77;;;6.35;;
20022;SDS011;10172;42.054;24.546;2023-03-01T00:50:16;8.52;;;6.45;;
20022;SDS011;10172;42.054;24.546;2023-03-01T00:52:42;8.05;;;5.80;;
20022;SDS011;10172;42.054;24.546;2023-03-01T00:55:07;11.50;;;7.35;;
20022;SDS011;10172;42.054;24.546;2023-03-01T00:57:33;10.02;;;7.18;;
20022;SDS011;10172;42.054;24.546;2023-03-01T00:59:59;11.45;;;7.35;;
20022;SDS011;10172;42.054;24.546;2023-03-01T01:02:24;10.30;;;7.18;;
20022;SDS011;10172;42.054;24.546;2023-03-01T01:04:51;9.55;;;6.38;;
20022;SDS011;10172;42.054;24.546;2023-03-01T01:07:17;5.93;;;4.65;;
20022;SDS011;10172;42.054;24.546;2023-03-01T01:09:45;8.43;;;5.47;;
20022;SDS011;10172;42.054;24.546;2023-03-01T01:12:10;8.02;;;5.47;;
20022;SDS011;10172;42.054;24.546;2023-03-01T01:14:36;14.57;;;7.65;;
20022;SDS011;10172;42.054;24.546;2023-03-01T01:17:02;12.25;;;7.10;;
20022;SDS011;10172;42.054;24.546;2023-03-01T01:19:27;8.98;;;5.40;;
20022;SDS011;10172;42.054;24.546;2023-03-01T01:21:53;7.20;;;4.53;;
20022;SDS011;10172;42.054;24.546;2023-03-01T01:24:19;5.97;;;3.92;;
20022;SDS011;10172;42.054;24.546;2023-03-01T01:26:44;8.80;;;4.85;;
20022;SDS011;10172;42.054;24.546;2023-03-01T01:29:10;8.55;;;5.65;;
20022;SDS011;10172;42.054;24.546;2023-03-01T01:31:37;8.90;;;5.35;;
20022;SDS011;10172;42.054;24.546;2023-03-01T01:34:05;11.73;;;6.32;;
20022;SDS011;10172;42.054;24.546;2023-03-01T01:36:32;11.20;;;6.20;;
20022;SDS011;10172;42.054;24.546;2023-03-01T01:38:59;10.40;;;5.82;;
20022;SDS011;10172;42.054;24.546;2023-03-01T01:41:25;10.80;;;6.65;;
20022;SDS011;10172;42.054;24.546;2023-03-01T01:49:54;10.35;;;6.28;;
20022;SDS011;10172;42.054;24.546;2023-03-01T01:52:31;11.98;;;6.40;;
20022;SDS011;10172;42.054;24.546;2023-03-01T01:55:02;10.95;;;6.30;;
20022;SDS011;10172;42.054;24.546;2023-03-01T01:57:34;11.48;;;7.10;;
20022;SDS011;10172;42.054;24.546;2023-03-01T02:00:08;10.88;;;6.65;;
20022;SDS011;10172;42.054;24.546;2023-03-01T02:02:36;12.30;;;6.75;;
20022;SDS011;10172;42.054;24.546;2023-03-01T02:05:09;11.15;;;6.65;;
20022;SDS011;10172;42.054;24.546;2023-03-01T02:07:40;12.85;;;7.75;;
20022;SDS011;10172;42.054;24.546;2023-03-01T02:10:07;12.40;;;7.30;;
20022;SDS011;10172;42.054;24.546;2023-03-01T02:12:33;12.90;;;7.82;;
20022;SDS011;10172;42.054;24.546;2023-03-01T02:15:00;8.27;;;5.68;;
20022;SDS011;10172;42.054;24.546;2023-03-01T02:17:26;10.73;;;6.07;;
20022;SDS011;10172;42.054;24.546;2023-03-01T02:22:32;11.13;;;7.05;;
20022;SDS011;10172;42.054;24.546;2023-03-01T02:30:43;14.60;;;8.70;;
20022;SDS011;10172;42.054;24.546;2023-03-01T02:33:31;13.38;;;7.00;;
20022;SDS011;10172;42.054;24.546;2023-03-01T02:35:58;13.95;;;7.68;;
20022;SDS011;10172;42.054;24.546;2023-03-01T02:38:26;14.68;;;7.60;;
20022;SDS011;10172;42.054;24.546;2023-03-01T02:40:53;16.35;;;7.30;;
20022;SDS011;10172;42.054;24.546;2023-03-01T02:43:21;11.32;;;6.75;;
20022;SDS011;10172;42.054;24.546;2023-03-01T02:45:51;11.98;;;7.65;;
20022;SDS011;10172;42.054;24.546;2023-03-01T02:48:18;10.18;;;6.85;;
20022;SDS011;10172;42.054;24.546;2023-03-01T02:53:42;11.05;;;6.45;;
20022;SDS011;10172;42.054;24.546;2023-03-01T02:56:20;12.48;;;6.53;;
20022;SDS011;10172;42.054;24.546;2023-03-01T02:58:46;10.75;;;5.80;;
20022;SDS011;10172;42.054;24.546;2023-03-01T03:01:16;9.68;;;6.03;;
20022;SDS011;10172;42.054;24.546;2023-03-01T03:03:42;8.95;;;5.85;;
20022;SDS011;10172;42.054;24.546;2023-03-01T03:06:07;7.35;;;5.20;;
20022;SDS011;10172;42.054;24.546;2023-03-01T03:08:34;11.20;;;6.53;;
20022;SDS011;10172;42.054;24.546;2023-03-01T03:10:59;9.30;;;5.68;;
20022;SDS011;10172;42.054;24.546;2023-03-01T03:13:25;7.38;;;4.32;;
20022;SDS011;10172;42.054;24.546;2023-03-01T03:15:53;7.97;;;5.30;;
20022;SDS011;10172;42.054;24.546;2023-03-01T03:18:20;9.82;;;5.85;;
20022;SDS011;10172;42.054;24.546;2023-03-01T03:20:46;8.82;;;5.40;;
20022;SDS011;10172;42.054;24.546;2023-03-01T03:23:12;10.77;;;5.53;;
20022;SDS011;10172;42.054;24.546;2023-03-01T03:25:38;10.00;;;5.88;;
20022;SDS011;10172;42.054;24.546;2023-03-01T03:28:04;9.40;;;4.75;;
20022;SDS011;10172;42.054;24.546;2023-03-01T03:30:35;7.45;;;4.35;;
20022;SDS011;10172;42.054;24.546;2023-03-01T03:33:04;7.43;;;4.60;;
20022;SDS011;10172;42.054;24.546;2023-03-01T03:35:31;6.75;;;4.50;;
20022;SDS011;10172;42.054;24.546;2023-03-01T03:37:59;8.02;;;4.90;;
20022;SDS011;10172;42.054;24.546;2023-03-01T03:40:27;8.05;;;4.18;;
20022;SDS011;10172;42.054;24.546;2023-03-01T03:43:12;8.05;;;4.63;;
20022;SDS011;10172;42.054;24.546;2023-03-01T03:45:46;8.00;;;4.50;;
20022;SDS011;10172;42.054;24.546;2023-03-01T03:48:13;7.10;;;4.70;;
20022;SDS011;10172;42.054;24.546;2023-03-01T03:50:39;6.82;;;3.65;;
20022;SDS011;10172;42.054;24.546;2023-03-01T03:53:07;4.90;;;3.35;;
20022;SDS011;10172;42.054;24.546;2023-03-01T03:55:35;6.15;;;3.67;;
20022;SDS011;10172;42.054;24.546;2023-03-01T03:58:04;6.00;;;3.63;;
20022;SDS011;10172;42.054;24.546;2023-03-01T04:00:35;7.15;;;4.32;;
20022;SDS011;10172;42.054;24.546;2023-03-01T04:03:01;9.32;;;6.22;;
20022;SDS011;10172;42.054;24.546;2023-03-01T04:05:27;8.38;;;4.53;;
20022;SDS011;10172;42.054;24.546;2023-03-01T04:07:53;10.80;;;4.85;;
20022;SDS011;10172;42.054;24.546;2023-03-01T04:10:26;7.93;;;4.00;;
20022;SDS011;10172;42.054;24.546;2023-03-01T04:12:52;7.45;;;4.30;;
20022;SDS011;10172;42.054;24.546;2023-03-01T04:15:18;5.75;;;4.15;;
20022;SDS011;10172;42.054;24.546;2023-03-01T04:17:44;5.45;;;3.85;;
20022;SDS011;10172;42.054;24.546;2023-03-01T04:20:12;5.00;;;3.15;;
20022;SDS011;10172;42.054;24.546;2023-03-01T04:22:43;5.93;;;3.80;;
20022;SDS011;10172;42.054;24.546;2023-03-01T04:25:12;6.32;;;3.90;;
20022;SDS011;10172;42.054;24.546;2023-03-01T04:27:39;7.78;;;4.78;;
20022;SDS011;10172;42.054;24.546;2023-03-01T04:30:06;6.88;;;3.88;;
20022;SDS011;10172;42.054;24.546;2023-03-01T04:32:32;5.78;;;3.67;;
20022;SDS011;10172;42.054;24.546;2023-03-01T04:34:57;9.52;;;6.20;;
20022;SDS011;10172;42.054;24.546;2023-03-01T04:37:23;6.03;;;4.18;;
20022;SDS011;10172;42.054;24.546;2023-03-01T04:39:49;6.15;;;3.97;;
20022;SDS011;10172;42.054;24.546;2023-03-01T04:42:14;5.05;;;2.83;;
20022;SDS011;10172;42.054;24.546;2023-03-01T04:44:41;4.72;;;3.35;;
20022;SDS011;10172;42.054;24.546;2023-03-01T04:47:08;6.25;;;4.28;;
20022;SDS011;10172;42.054;24.546;2023-03-01T04:49:33;8.07;;;4.47;;
20022;SDS011;10172;42.054;24.546;2023-03-01T04:51:59;6.22;;;3.83;;
20022;SDS011;10172;42.054;24.546;2023-03-01T04:54:34;6.18;;;4.07;;
20022;SDS011;10172;42.054;24.546;2023-03-01T04:57:00;6.32;;;4.32;;
20022;SDS011;10172;42.054;24.546;2023-03-01T04:59:26;9.82;;;7.18;;
20022;SDS011;10172;42.054;24.546;2023-03-01T05:01:52;12.00;;;7.43;;
20022;SDS011;10172;42.054;24.546;2023-03-01T05:04:22;14.30;;;8.07;;
20022;SDS011;10172;42.054;24.546;2023-03-01T05:06:48;6.50;;;4.32;;
20022;SDS011;10172;42.054;24.546;2023-03-01T05:09:14;6.90;;;4.18;;
20022;SDS011;10172;42.054;24.546;2023-03-01T05:11:39;6.55;;;3.97;;
20022;SDS011;10172;42.054;24.546;2023-03-01T05:14:06;7.00;;;4.18;;
20022;SDS011;10172;42.054;24.546;2023-03-01T05:16:32;6.30;;;4.15;;
20022;SDS011;10172;42.054;24.546;2023-03-01T05:18:58;9.50;;;5.68;;
20022;SDS011;10172;42.054;24.546;2023-03-01T05:21:24;26.02;;;13.23;;
20022;SDS011;10172;42.054;24.546;2023-03-01T05:23:50;8.80;;;4.80;;
20022;SDS011;10172;42.054;24.546;2023-03-01T05:26:16;7.65;;;4.55;;
20022;SDS011;10172;42.054;24.546;2023-03-01T05:28:43;6.20;;;4.15;;
20022;SDS011;10172;42.054;24.546;2023-03-01T05:31:09;7.00;;;5.05;;
20022;SDS011;10172;42.054;24.546;2023-03-01T05:33:41;11.48;;;9.48;;
20022;SDS011;10172;42.054;24.546;2023-03-01T05:36:07;6.95;;;4.10;;
20022;SDS011;10172;42.054;24.546;2023-03-01T05:38:34;8.13;;;5.05;;
20022;SDS011;10172;42.054;24.546;2023-03-01T05:41:01;7.50;;;4.60;;
20022;SDS011;10172;42.054;24.546;2023-03-01T05:43:29;8.50;;;5.35;;
20022;SDS011;10172;42.054;24.546;2023-03-01T05:45:58;6.68;;;4.63;;
20022;SDS011;10172;42.054;24.546;2023-03-01T05:48:24;6.45;;;4.13;;
20022;SDS011;10172;42.054;24.546;2023-03-01T05:50:51;5.43;;;3.83;;
20022;SDS011;10172;42.054;24.546;2023-03-01T05:53:17;5.25;;;3.90;;
20022;SDS011;10172;42.054;24.546;2023-03-01T05:55:46;5.13;;;3.47;;
20022;SDS011;10172;42.054;24.546;2023-03-01T05:58:15;5.20;;;3.58;;
20022;SDS011;10172;42.054;24.546;2023-03-01T06:00:44;5.05;;;3.13;;
20022;SDS011;10172;42.054;24.546;2023-03-01T06:03:11;4.88;;;3.20;;
20022;SDS011;10172;42.054;24.546;2023-03-01T06:05:39;5.90;;;4.00;;
20022;SDS011;10172;42.054;24.546;2023-03-01T06:08:05;6.65;;;4.65;;
20022;SDS011;10172;42.054;24.546;2023-03-01T06:10:31;6.55;;;4.40;;
20022;SDS011;10172;42.054;24.546;2023-03-01T06:12:57;5.95;;;3.88;;
20022;SDS011;10172;42.054;24.546;2023-03-01T06:15:23;6.22;;;4.13;;
20022;SDS011;10172;42.054;24.546;2023-03-01T06:17:50;5.18;;;3.45;;
20022;SDS011;10172;42.054;24.546;2023-03-01T06:20:16;7.00;;;4.45;;
20022;SDS011;10172;42.054;24.546;2023-03-01T06:22:47;6.32;;;4.45;;
20022;SDS011;10172;42.054;24.546;2023-03-01T06:25:15;4.93;;;3.58;;
20022;SDS011;10172;42.054;24.546;2023-03-01T06:27:42;10.45;;;7.88;;
20022;SDS011;10172;42.054;24.546;2023-03-01T06:30:09;6.72;;;4.07;;
20022;SDS011;10172;42.054;24.546;2023-03-01T06:32:37;6.72;;;4.82;;
20022;SDS011;10172;42.054;24.546;2023-03-01T06:35:06;6.30;;;3.65;;
20022;SDS011;10172;42.054;24.546;2023-03-01T06:37:32;8.02;;;4.72;;
20022;SDS011;10172;42.054;24.546;2023-03-01T06:40:00;5.65;;;4.63;;
20022;SDS011;10172;42.054;24.546;2023-03-01T06:42:29;5.65;;;3.25;;
20022;SDS011;10172;42.054;24.546;2023-03-01T06:44:55;6.60;;;4.30;;
20022;SDS011;10172;42.054;24.546;2023-03-01T06:47:20;7.40;;;5.20;;
20022;SDS011;10172;42.054;24.546;2023-03-01T06:49:46;8.65;;;5.18;;
20022;SDS011;10172;42.054;24.546;2023-03-01T06:52:11;8.77;;;4.97;;
20022;SDS011;10172;42.054;24.546;2023-03-01T06:54:36;7.30;;;5.25;;
20022;SDS011;10172;42.054;24.546;2023-03-01T06:57:02;7.40;;;4.65;;
20022;SDS011;10172;42.054;24.546;2023-03-01T06:59:27;5.97;;;3.97;;
20022;SDS011;10172;42.054;24.546;2023-03-01T07:01:53;6.38;;;4.13;;
20022;SDS011;10172;42.054;24.546;2023-03-01T07:04:18;5.82;;;4.07;;
20022;SDS011;10172;42.054;24.546;2023-03-01T07:06:44;7.78;;;4.72;;
20022;SDS011;10172;42.054;24.546;2023-03-01T07:09:09;7.65;;;4.25;;
20022;SDS011;10172;42.054;24.546;2023-03-01T07:11:35;7.18;;;5.20;;
20022;SDS011;10172;42.054;24.546;2023-03-01T07:14:00;8.95;;;5.07;;
20022;SDS011;10172;42.054;24.546;2023-03-01T07:16:26;7.15;;;5.22;;
20022;SDS011;10172;42.054;24.546;2023-03-01T07:18:51;9.10;;;4.38;;
20022;SDS011;10172;42.054;24.546;2023-03-01T07:21:17;7.30;;;4.65;;
20022;SDS011;10172;42.054;24.546;2023-03-01T07:23:42;8.85;;;5.43;;
20022;SDS011;10172;42.054;24.546;2023-03-01T07:26:08;7.53;;;4.55;;
20022;SDS011;10172;42.054;24.546;2023-03-01T07:28:33;7.15;;;5.15;;
20022;SDS011;10172;42.054;24.546;2023-03-01T07:31:03;7.40;;;4.45;;
20022;SDS011;10172;42.054;24.546;2023-03-01T07:33:30;7.68;;;5.13;;
20022;SDS011;10172;42.054;24.546;2023-03-01T07:36:00;11.68;;;6.60;;
20022;SDS011;10172;42.054;24.546;2023-03-01T07:38:27;7.35;;;4.40;;
20022;SDS011;10172;42.054;24.546;2023-03-01T07:40:57;8.02;;;5.05;;
20022;SDS011;10172;42.054;24.546;2023-03-01T07:43:30;9.27;;;5.57;;
20022;SDS011;10172;42.054;24.546;2023-03-01T07:46:00;14.13;;;7.65;;
20022;SDS011;10172;42.054;24.546;2023-03-01T07:48:25;8.25;;;5.53;;
20022;SDS011;10172;42.054;24.546;2023-03-01T07:50:51;11.82;;;5.78;;
20022;SDS011;10172;42.054;24.546;2023-03-01T07:53:17;11.90;;;5.82;;
20022;SDS011;10172;42.054;24.546;2023-03-01T07:55:42;10.20;;;5.93;;
20022;SDS011;10172;42.054;24.546;2023-03-01T07:58:08;9.57;;;6.75;;
20022;SDS011;10172;42.054;24.546;2023-03-01T08:00:33;9.52;;;6.20;;
20022;SDS011;10172;42.054;24.546;2023-03-01T08:02:59;11.95;;;6.70;;
20022;SDS011;10172;42.054;24.546;2023-03-01T08:05:26;10.80;;;5.85;;
20022;SDS011;10172;42.054;24.546;2023-03-01T08:07:52;8.25;;;5.57;;
20022;SDS011;10172;42.054;24.546;2023-03-01T08:10:17;9.70;;;5.65;;
20022;SDS011;10172;42.054;24.546;2023-03-01T08:12:43;11.90;;;5.95;;
20022;SDS011;10172;42.054;24.546;2023-03-01T08:15:09;8.25;;;6.03;;
20022;SDS011;10172;42.054;24.546;2023-03-01T08:17:35;6.70;;;4.85;;
20022;SDS011;10172;42.054;24.546;2023-03-01T08:20:00;10.88;;;6.82;;
20022;SDS011;10172;42.054;24.546;2023-03-01T08:22:26;6.38;;;4.68;;
20022;SDS011;10172;42.054;24.546;2023-03-01T08:24:51;6.47;;;4.57;;
20022;SDS011;10172;42.054;24.546;2023-03-01T08:27:16;7.15;;;4.38;;
20022;SDS011;10172;42.054;24.546;2023-03-01T08:29:42;6.65;;;4.63;;
20022;SDS011;10172;42.054;24.546;2023-03-01T08:32:08;7.35;;;4.70;;
20022;SDS011;10172;42.054;24.546;2023-03-01T08:34:33;9.13;;;6.22;;
20022;SDS011;10172;42.054;24.546;2023-03-01T08:37:00;6.88;;;4.57;;
20022;SDS011;10172;42.054;24.546;2023-03-01T08:39:26;6.55;;;4.63;;
20022;SDS011;10172;42.054;24.546;2023-03-01T08:41:53;7.25;;;4.82;;
20022;SDS011;10172;42.054;24.546;2023-03-01T08:44:18;9.02;;;5.90;;
20022;SDS011;10172;42.054;24.546;2023-03-01T08:46:46;7.63;;;5.30;;
20022;SDS011;10172;42.054;24.546;2023-03-01T08:49:19;10.05;;;5.85;;
20022;SDS011;10172;42.054;24.546;2023-03-01T08:51:45;8.63;;;5.78;;
20022;SDS011;10172;42.054;24.546;2023-03-01T08:54:13;8.80;;;6.20;;
20022;SDS011;10172;42.054;24.546;2023-03-01T08:56:43;8.25;;;5.13;;
20022;SDS011;10172;42.054;24.546;2023-03-01T08:59:13;6.93;;;5.15;;
20022;SDS011;10172;42.054;24.546;2023-03-01T09:01:40;8.48;;;5.32;;
20022;SDS011;10172;42.054;24.546;2023-03-01T09:04:08;9.00;;;5.53;;
20022;SDS011;10172;42.054;24.546;2023-03-01T09:06:34;12.30;;;7.55;;
20022;SDS011;10172;42.054;24.546;2023-03-01T09:09:00;10.50;;;6.80;;
20022;SDS011;10172;42.054;24.546;2023-03-01T09:11:27;12.93;;;7.18;;
20022;SDS011;10172;42.054;24.546;2023-03-01T09:13:53;13.48;;;7.78;;
20022;SDS011;10172;42.054;24.546;2023-03-01T09:16:19;13.23;;;6.82;;
20022;SDS011;10172;42.054;24.546;2023-03-01T09:18:48;10.07;;;5.68;;
20022;SDS011;10172;42.054;24.546;2023-03-01T09:21:20;8.05;;;5.70;;
20022;SDS011;10172;42.054;24.546;2023-03-01T09:23:48;7.72;;;5.20;;
20022;SDS011;10172;42.054;24.546;2023-03-01T09:26:15;7.75;;;4.47;;
20022;SDS011;10172;42.054;24.546;2023-03-01T09:28:44;8.10;;;5.68;;
20022;SDS011;10172;42.054;24.546;2023-03-01T09:31:10;9.25;;;4.80;;
20022;SDS011;10172;42.054;24.546;2023-03-01T09:33:37;8.30;;;5.50;;
20022;SDS011;10172;42.054;24.546;2023-03-01T09:36:04;6.30;;;4.70;;
20022;SDS011;10172;42.054;24.546;2023-03-01T09:38:32;7.57;;;4.82;;
20022;SDS011;10172;42.054;24.546;2023-03-01T09:40:58;8.02;;;4.80;;
20022;SDS011;10172;42.054;24.546;2023-03-01T09:46:05;6.70;;;4.93;;
20022;SDS011;10172;42.054;24.546;2023-03-01T09:48:41;8.00;;;5.38;;
20022;SDS011;10172;42.054;24.546;2023-03-01T09:51:33;5.45;;;3.92;;
20022;SDS011;10172;42.054;24.546;2023-03-01T09:54:03;7.53;;;4.70;;
20022;SDS011;10172;42.054;24.546;2023-03-01T09:56:40;9.45;;;4.40;;
20022;SDS011;10172;42.054;24.546;2023-03-01T10:06:56;5.80;;;4.07;;
20022;SDS011;10172;42.054;24.546;2023-03-01T10:09:32;12.30;;;4.90;;
20022;SDS011;10172;42.054;24.546;2023-03-01T10:12:00;10.80;;;6.68;;
20022;SDS011;10172;42.054;24.546;2023-03-01T10:22:41;11.90;;;6.00;;
20022;SDS011;10172;42.054;24.546;2023-03-01T10:25:08;9.45;;;6.00;;
20022;SDS011;10172;42.054;24.546;2023-03-01T10:28:15;8.00;;;5.15;;
20022;SDS011;10172;42.054;24.546;2023-03-01T10:30:38;9.10;;;5.10;;
20022;SDS011;10172;42.054;24.546;2023-03-01T10:35:44;8.77;;;5.15;;
20022;SDS011;10172;42.054;24.546;2023-03-01T10:38:11;8.65;;;5.03;;
20022;SDS011;10172;42.054;24.546;2023-03-01T10:40:54;9.73;;;5.88;;
20022;SDS011;10172;42.054;24.546;2023-03-01T10:43:23;11.88;;;6.68;;
20022;SDS011;10172;42.054;24.546;2023-03-01T10:45:57;10.70;;;7.43;;
20022;SDS011;10172;42.054;24.546;2023-03-01T10:48:23;14.70;;;7.63;;
20022;SDS011;10172;42.054;24.546;2023-03-01T10:51:12;13.95;;;8.82;;
20022;SDS011;10172;42.054;24.546;2023-03-01T10:53:41;10.95;;;7.57;;
20022;SDS011;10172;42.054;24.546;2023-03-01T10:56:09;14.50;;;8.55;;
20022;SDS011;10172;42.054;24.546;2023-03-01T10:58:38;14.88;;;8.35;;
20022;SDS011;10172;42.054;24.546;2023-03-01T11:01:06;13.00;;;7.78;;
20022;SDS011;10172;42.054;24.546;2023-03-01T11:06:31;12.48;;;7.07;;
20022;SDS011;10172;42.054;24.546;2023-03-01T11:09:01;13.85;;;9.43;;
20022;SDS011;10172;42.054;24.546;2023-03-01T11:11:38;14.05;;;8.88;;
20022;SDS011;10172;42.054;24.546;2023-03-01T11:16:47;10.73;;;6.25;;
20022;SDS011;10172;42.054;24.546;2023-03-01T11:19:22;11.13;;;6.93;;
20022;SDS011;10172;42.054;24.546;2023-03-01T11:24:52;12.10;;;7.60;;
20022;SDS011;10172;42.054;24.546;2023-03-01T11:27:21;10.95;;;7.90;;
20022;SDS011;10172;42.054;24.546;2023-03-01T11:32:45;9.88;;;7.28;;
20022;SDS011;10172;42.054;24.546;2023-03-01T11:35:19;11.85;;;7.30;;
20022;SDS011;10172;42.054;24.546;2023-03-01T11:40:49;11.60;;;8.90;;
20022;SDS011;10172;42.054;24.546;2023-03-01T11:49:05;13.27;;;8.38;;
20022;SDS011;10172;42.054;24.546;2023-03-01T11:55:19;15.40;;;10.85;;
20022;SDS011;10172;42.054;24.546;2023-03-01T12:11:39;10.52;;;7.03;;
20022;SDS011;10172;42.054;24.546;2023-03-01T12:14:30;8.88;;;5.68;;
20022;SDS011;10172;42.054;24.546;2023-03-01T12:34:09;10.70;;;7.30;;
20022;SDS011;10172;42.054;24.546;2023-03-01T12:48:09;8.57;;;6.80;;
20022;SDS011;10172;42.054;24.546;2023-03-01T12:50:53;13.73;;;8.05;;
20022;SDS011;10172;42.054;24.546;2023-03-01T12:53:28;11.18;;;6.50;;
20022;SDS011;10172;42.054;24.546;2023-03-01T12:56:00;9.00;;;5.78;;
20022;SDS011;10172;42.054;24.546;2023-03-01T13:17:49;14.15;;;8.50;;
20022;SDS011;10172;42.054;24.546;2023-03-01T13:20:29;21.02;;;12.27;;
20022;SDS011;10172;42.054;24.546;2023-03-01T13:23:01;22.90;;;14.88;;
20022;SDS011;10172;42.054;24.546;2023-03-01T13:25:27;15.20;;;11.60;;
20022;SDS011;10172;42.054;24.546;2023-03-01T13:27:52;11.63;;;7.72;;
20022;SDS011;10172;42.054;24.546;2023-03-01T13:30:56;12.15;;;8.30;;
20022;SDS011;10172;42.054;24.546;2023-03-01T13:35:50;19.20;;;9.85;;
20022;SDS011;10172;42.054;24.546;2023-03-01T13:41:12;21.15;;;15.43;;
20022;SDS011;10172;42.054;24.546;2023-03-01T13:43:40;91.22;;;63.72;;
20022;SDS011;10172;42.054;24.546;2023-03-01T13:46:12;46.72;;;31.83;;
20022;SDS011;10172;42.054;24.546;2023-03-01T13:48:47;11.98;;;8.60;;
20022;SDS011;10172;42.054;24.546;2023-03-01T13:51:20;9.90;;;7.38;;
20022;SDS011;10172;42.054;24.546;2023-03-01T13:53:49;12.48;;;8.15;;
20022;SDS011;10172;42.054;24.546;2023-03-01T13:56:16;14.77;;;9.70;;
20022;SDS011;10172;42.054;24.546;2023-03-01T13:58:51;14.25;;;7.97;;
20022;SDS011;10172;42.054;24.546;2023-03-01T14:01:28;10.57;;;7.82;;
20022;SDS011;10172;42.054;24.546;2023-03-01T14:03:55;12.48;;;7.75;;
20022;SDS011;10172;42.054;24.546;2023-03-01T14:06:29;18.80;;;11.18;;
20022;SDS011;10172;42.054;24.546;2023-03-01T14:09:09;12.75;;;8.20;;
20022;SDS011;10172;42.054;24.546;2023-03-01T14:14:31;13.02;;;8.73;;
20022;SDS011;10172;42.054;24.546;2023-03-01T14:19:58;8.13;;;6.57;;
20022;SDS011;10172;42.054;24.546;2023-03-01T14:22:30;8.23;;;6.15;;
20022;SDS011;10172;42.054;24.546;2023-03-01T14:24:59;10.45;;;6.28;;
20022;SDS011;10172;42.054;24.546;2023-03-01T14:27:35;8.65;;;6.15;;
20022;SDS011;10172;42.054;24.546;2023-03-01T14:30:18;7.32;;;5.65;;
20022;SDS011;10172;42.054;24.546;2023-03-01T14:32:57;7.75;;;5.78;;
20022;SDS011;10172;42.054;24.546;2023-03-01T14:35:25;8.80;;;5.60;;
20022;SDS011;10172;42.054;24.546;2023-03-01T14:37:52;7.95;;;5.28;;
20022;SDS011;10172;42.054;24.546;2023-03-01T14:42:56;6.47;;;5.10;;
20022;SDS011;10172;42.054;24.546;2023-03-01T14:45:25;7.15;;;5.38;;
20022;SDS011;10172;42.054;24.546;2023-03-01T14:47:52;12.57;;;7.63;;
20022;SDS011;10172;42.054;24.546;2023-03-01T14:52:53;24.13;;;15.60;;
20022;SDS011;10172;42.054;24.546;2023-03-01T14:55:24;12.65;;;7.72;;
20022;SDS011;10172;42.054;24.546;2023-03-01T14:57:54;14.68;;;11.52;;
20022;SDS011;10172;42.054;24.546;2023-03-01T15:00:21;13.85;;;8.95;;
20022;SDS011;10172;42.054;24.546;2023-03-01T15:02:50;23.27;;;11.77;;
20022;SDS011;10172;42.054;24.546;2023-03-01T15:05:18;19.00;;;12.68;;
20022;SDS011;10172;42.054;24.546;2023-03-01T15:07:57;24.95;;;16.40;;
20022;SDS011;10172;42.054;24.546;2023-03-01T15:10:27;20.15;;;11.18;;
20022;SDS011;10172;42.054;24.546;2023-03-01T15:12:55;19.02;;;10.93;;
20022;SDS011;10172;42.054;24.546;2023-03-01T15:17:53;15.57;;;11.88;;
20022;SDS011;10172;42.054;24.546;2023-03-01T15:20:24;14.80;;;10.07;;
20022;SDS011;10172;42.054;24.546;2023-03-01T15:22:53;15.45;;;11.25;;
20022;SDS011;10172;42.054;24.546;2023-03-01T15:25:21;20.65;;;13.77;;
20022;SDS011;10172;42.054;24.546;2023-03-01T15:27:51;11.50;;;8.90;;
20022;SDS011;10172;42.054;24.546;2023-03-01T15:30:26;19.17;;;13.98;;
20022;SDS011;10172;42.054;24.546;2023-03-01T15:33:18;23.55;;;14.90;;
20022;SDS011;10172;42.054;24.546;2023-03-01T15:35:53;18.33;;;14.02;;
20022;SDS011;10172;42.054;24.546;2023-03-01T15:38:35;19.33;;;14.50;;
20022;SDS011;10172;42.054;24.546;2023-03-01T15:43:50;23.80;;;13.93;;
20022;SDS011;10172;42.054;24.546;2023-03-01T15:48:51;37.08;;;24.13;;
20022;SDS011;10172;42.054;24.546;2023-03-01T15:51:36;28.75;;;17.70;;
20022;SDS011;10172;42.054;24.546;2023-03-01T15:54:14;24.02;;;16.98;;
20022;SDS011;10172;42.054;24.546;2023-03-01T15:56:44;24.88;;;15.05;;
20022;SDS011;10172;42.054;24.546;2023-03-01T15:59:10;17.58;;;12.45;;
20022;SDS011;10172;42.054;24.546;2023-03-01T16:01:40;18.27;;;12.05;;
20022;SDS011;10172;42.054;24.546;2023-03-01T16:04:06;48.72;;;26.98;;
20022;SDS011;10172;42.054;24.546;2023-03-01T16:06:31;24.30;;;14.73;;
20022;SDS011;10172;42.054;24.546;2023-03-01T16:08:57;20.30;;;13.65;;
20022;SDS011;10172;42.054;24.546;2023-03-01T16:11:22;27.90;;;16.92;;
20022;SDS011;10172;42.054;24.546;2023-03-01T16:13:48;18.98;;;11.77;;
20022;SDS011;10172;42.054;24.546;2023-03-01T16:16:14;16.52;;;9.93;;
20022;SDS011;10172;42.054;24.546;2023-03-01T16:18:44;12.63;;;8.40;;
20022;SDS011;10172;42.054;24.546;2023-03-01T16:21:29;12.75;;;8.43;;
20022;SDS011;10172;42.054;24.546;2023-03-01T16:23:55;36.28;;;20.75;;
20022;SDS011;10172;42.054;24.546;2023-03-01T16:26:21;99.32;;;53.78;;
20022;SDS011;10172;42.054;24.546;2023-03-01T16:28:47;148.68;;;78.55;;
20022;SDS011;10172;42.054;24.546;2023-03-01T16:31:15;47.00;;;27.52;;
20022;SDS011;10172;42.054;24.546;2023-03-01T16:33:42;70.32;;;42.42;;
20022;SDS011;10172;42.054;24.546;2023-03-01T16:36:14;30.50;;;16.48;;
20022;SDS011;10172;42.054;24.546;2023-03-01T16:38:41;32.83;;;19.02;;
20022;SDS011;10172;42.054;24.546;2023-03-01T16:41:11;131.38;;;72.63;;
20022;SDS011;10172;42.054;24.546;2023-03-01T16:43:38;186.60;;;95.18;;
20022;SDS011;10172;42.054;24.546;2023-03-01T16:46:37;75.15;;;38.30;;
20022;SDS011;10172;42.054;24.546;2023-03-01T16:48:56;51.03;;;31.98;;
20022;SDS011;10172;42.054;24.546;2023-03-01T16:51:23;144.82;;;96.85;;
20022;SDS011;10172;42.054;24.546;2023-03-01T16:53:49;19.30;;;14.60;;
20022;SDS011;10172;42.054;24.546;2023-03-01T16:56:16;25.08;;;14.98;;
20022;SDS011;10172;42.054;24.546;2023-03-01T16:58:42;17.98;;;11.48;;
20022;SDS011;10172;42.054;24.546;2023-03-01T17:03:36;13.77;;;10.30;;
20022;SDS011;10172;42.054;24.546;2023-03-01T17:06:02;14.10;;;9.48;;